sensor_id;sensor_type;location;lat;lon;timestamp;P1;P2;P0
56360;PMS7003;42611;51.132;13.588;2023-02-01T00:00:02;9.9;7.8;
56360;PMS7003;42611;51.132;13.588;2023-02-01T00:05:01;9.4;8.0;
56360;PMS7003;42611;51.132;13.588;2023-02-01T00:10:01;8.0;7.3;
56360;PMS7003;42611;51.132;13.588;2023-02-01T00:15:01;7.4;6.9;
56360;PMS7003;42611;51.132;13.588;2023-02-01T00:20:01;7.0;6.5;
56360;PMS7003;42611;51.132;13.588;2023-02-01T00:25:01;6.8;6.3;
56360;PMS7003;42611;51.132;13.588;2023-02-01T00:30:02;6.5;6.1;
56360;PMS7003;42611;51.132;13.588;2023-02-01T00:35:01;6.9;6.5;
56360;PMS7003;42611;51.132;13.588;2023-02-01T00:40:01;7.7;7.0;
56360;PMS7003;42611;51.132;13.588;2023-02-01T00:45:01;7.7;7.0;
56360;PMS7003;42611;51.132;13.588;2023-02-01T00:50:01;8.0;7.6;
56360;PMS7003;42611;51.132;13.588;2023-02-01T00:55:02;7.3;6.7;
56360;PMS7003;42611;51.132;13.588;2023-02-01T01:00:08;7.5;6.5;
56360;PMS7003;42611;51.132;13.588;2023-02-01T01:05:06;7.2;6.2;
56360;PMS7003;42611;51.132;13.588;2023-02-01T01:10:06;7.1;6.2;
56360;PMS7003;42611;51.132;13.588;2023-02-01T01:15:01;6.5;5.6;
56360;PMS7003;42611;51.132;13.588;2023-02-01T01:20:01;7.2;6.2;
56360;PMS7003;42611;51.132;13.588;2023-02-01T01:25:01;6.8;6.2;
56360;PMS7003;42611;51.132;13.588;2023-02-01T01:30:02;7.0;6.1;
56360;PMS7003;42611;51.132;13.588;2023-02-01T01:35:01;6.9;5.9;
56360;PMS7003;42611;51.132;13.588;2023-02-01T01:40:01;7.2;6.0;
56360;PMS7003;42611;51.132;13.588;2023-02-01T01:45:07;7.2;6.0;
56360;PMS7003;42611;51.132;13.588;2023-02-01T01:50:02;7.4;5.5;
56360;PMS7003;42611;51.132;13.588;2023-02-01T01:55:06;6.7;5.4;
56360;PMS7003;42611;51.132;13.588;2023-02-01T02:00:11;6.8;5.6;
56360;PMS7003;42611;51.132;13.588;2023-02-01T02:05:01;6.6;5.4;
56360;PMS7003;42611;51.132;13.588;2023-02-01T02:10:03;6.4;5.0;
56360;PMS7003;42611;51.132;13.588;2023-02-01T02:15:02;5.9;5.4;
56360;PMS7003;42611;51.132;13.588;2023-02-01T02:20:09;5.4;4.9;
56360;PMS7003;42611;51.132;13.588;2023-02-01T02:25:18;5.1;4.4;
56360;PMS7003;42611;51.132;13.588;2023-02-01T02:30:24;4.6;4.0;
56360;PMS7003;42611;51.132;13.588;2023-02-01T02:35:08;4.4;4.1;
56360;PMS7003;42611;51.132;13.588;2023-02-01T02:40:18;4.7;4.0;
56360;PMS7003;42611;51.132;13.588;2023-02-01T02:45:25;5.5;4.5;
56360;PMS7003;42611;51.132;13.588;2023-02-01T02:50:06;6.5;5.5;
56360;PMS7003;42611;51.132;13.588;2023-02-01T02:55:06;7.2;6.0;
56360;PMS7003;42611;51.132;13.588;2023-02-01T03:00:12;7.8;6.1;
56360;PMS7003;42611;51.132;13.588;2023-02-01T03:05:01;7.3;6.0;
56360;PMS7003;42611;51.132;13.588;2023-02-01T03:10:05;7.4;5.6;
56360;PMS7003;42611;51.132;13.588;2023-02-01T03:15:08;7.0;5.4;
56360;PMS7003;42611;51.132;13.588;2023-02-01T03:20:01;6.7;5.3;
56360;PMS7003;42611;51.132;13.588;2023-02-01T03:25:02;6.8;5.4;
56360;PMS7003;42611;51.132;13.588;2023-02-01T03:30:47;7.5;5.8;
56360;PMS7003;42611;51.132;13.588;2023-02-01T03:35:01;7.0;6.1;
56360;PMS7003;42611;51.132;13.588;2023-02-01T03:45:13;7.3;6.0;
56360;PMS7003;42611;51.132;13.588;2023-02-01T03:50:03;6.9;6.0;
56360;PMS7003;42611;51.132;13.588;2023-02-01T03:55:02;7.0;6.2;
56360;PMS7003;42611;51.132;13.588;2023-02-01T04:00:19;7.2;6.2;
56360;PMS7003;42611;51.132;13.588;2023-02-01T04:05:07;6.6;5.6;
56360;PMS7003;42611;51.132;13.588;2023-02-01T04:10:01;6.1;5.5;
56360;PMS7003;42611;51.132;13.588;2023-02-01T04:15:01;5.8;5.2;
56360;PMS7003;42611;51.132;13.588;2023-02-01T04:20:01;4.9;4.5;
56360;PMS7003;42611;51.132;13.588;2023-02-01T04:25:06;4.8;4.6;
56360;PMS7003;42611;51.132;13.588;2023-02-01T04:30:07;5.0;4.8;
56360;PMS7003;42611;51.132;13.588;2023-02-01T04:35:06;5.2;5.0;
56360;PMS7003;42611;51.132;13.588;2023-02-01T04:40:06;5.8;5.4;
56360;PMS7003;42611;51.132;13.588;2023-02-01T04:45:02;6.1;5.9;
56360;PMS7003;42611;51.132;13.588;2023-02-01T04:50:01;6.6;6.0;
56360;PMS7003;42611;51.132;13.588;2023-02-01T04:55:06;6.5;5.8;
56360;PMS7003;42611;51.132;13.588;2023-02-01T05:00:08;6.4;5.8;
56360;PMS7003;42611;51.132;13.588;2023-02-01T05:05:07;6.3;5.7;
56360;PMS7003;42611;51.132;13.588;2023-02-01T05:15:03;6.6;5.7;
56360;PMS7003;42611;51.132;13.588;2023-02-01T05:20:01;7.2;5.8;
56360;PMS7003;42611;51.132;13.588;2023-02-01T05:25:01;7.4;6.0;
56360;PMS7003;42611;51.132;13.588;2023-02-01T05:30:08;7.6;5.9;
56360;PMS7003;42611;51.132;13.588;2023-02-01T05:35:01;7.5;5.8;
56360;PMS7003;42611;51.132;13.588;2023-02-01T05:40:06;6.4;5.4;
56360;PMS7003;42611;51.132;13.588;2023-02-01T05:45:01;6.4;5.5;
56360;PMS7003;42611;51.132;13.588;2023-02-01T05:55:01;6.2;5.4;
56360;PMS7003;42611;51.132;13.588;2023-02-01T06:00:13;6.5;5.3;
56360;PMS7003;42611;51.132;13.588;2023-02-01T06:05:01;7.3;5.7;
56360;PMS7003;42611;51.132;13.588;2023-02-01T06:10:06;6.9;5.7;
56360;PMS7003;42611;51.132;13.588;2023-02-01T06:15:02;7.0;5.4;
56360;PMS7003;42611;51.132;13.588;2023-02-01T06:20:07;6.9;5.3;
56360;PMS7003;42611;51.132;13.588;2023-02-01T06:25:06;7.0;5.8;
56360;PMS7003;42611;51.132;13.588;2023-02-01T06:30:02;6.8;5.4;
56360;PMS7003;42611;51.132;13.588;2023-02-01T06:35:06;6.7;5.2;
56360;PMS7003;42611;51.132;13.588;2023-02-01T06:40:03;7.3;5.9;
56360;PMS7003;42611;51.132;13.588;2023-02-01T06:45:01;7.8;6.1;
56360;PMS7003;42611;51.132;13.588;2023-02-01T06:50:11;8.2;6.2;
56360;PMS7003;42611;51.132;13.588;2023-02-01T06:55:01;9.1;6.8;
56360;PMS7003;42611;51.132;13.588;2023-02-01T07:00:04;9.4;6.6;
56360;PMS7003;42611;51.132;13.588;2023-02-01T07:05:06;8.8;6.4;
56360;PMS7003;42611;51.132;13.588;2023-02-01T07:10:02;8.2;6.2;
56360;PMS7003;42611;51.132;13.588;2023-02-01T07:15:02;7.6;6.0;
56360;PMS7003;42611;51.132;13.588;2023-02-01T07:20:03;6.6;5.6;
56360;PMS7003;42611;51.132;13.588;2023-02-01T07:25:07;6.5;5.8;
56360;PMS7003;42611;51.132;13.588;2023-02-01T07:30:07;6.4;5.4;
56360;PMS7003;42611;51.132;13.588;2023-02-01T07:35:06;6.7;5.8;
56360;PMS7003;42611;51.132;13.588;2023-02-01T07:40:01;6.9;5.9;
56360;PMS7003;42611;51.132;13.588;2023-02-01T07:45:23;6.6;5.5;
56360;PMS7003;42611;51.132;13.588;2023-02-01T07:50:06;6.8;5.5;
56360;PMS7003;42611;51.132;13.588;2023-02-01T07:55:01;6.5;5.6;
56360;PMS7003;42611;51.132;13.588;2023-02-01T08:00:07;6.5;5.2;
56360;PMS7003;42611;51.132;13.588;2023-02-01T08:05:06;6.4;5.3;
56360;PMS7003;42611;51.132;13.588;2023-02-01T08:10:01;6.6;5.6;
56360;PMS7003;42611;51.132;13.588;2023-02-01T08:15:07;7.4;6.4;
56360;PMS7003;42611;51.132;13.588;2023-02-01T08:20:01;8.0;6.7;
56360;PMS7003;42611;51.132;13.588;2023-02-01T08:25:07;9.2;7.1;
56360;PMS7003;42611;51.132;13.588;2023-02-01T08:30:07;9.6;7.5;
56360;PMS7003;42611;51.132;13.588;2023-02-01T08:35:03;10.1;7.8;
56360;PMS7003;42611;51.132;13.588;2023-02-01T08:40:03;9.5;7.3;
56360;PMS7003;42611;51.132;13.588;2023-02-01T08:45:07;9.7;7.7;
56360;PMS7003;42611;51.132;13.588;2023-02-01T08:50:06;8.9;7.7;
56360;PMS7003;42611;51.132;13.588;2023-02-01T08:55:01;9.0;7.4;
56360;PMS7003;42611;51.132;13.588;2023-02-01T09:00:03;9.1;7.4;
56360;PMS7003;42611;51.132;13.588;2023-02-01T09:05:11;8.7;7.3;
56360;PMS7003;42611;51.132;13.588;2023-02-01T09:10:01;9.0;6.6;
56360;PMS7003;42611;51.132;13.588;2023-02-01T09:15:02;8.4;6.3;
56360;PMS7003;42611;51.132;13.588;2023-02-01T09:20:01;7.8;6.2;
56360;PMS7003;42611;51.132;13.588;2023-02-01T09:30:03;7.6;6.0;
56360;PMS7003;42611;51.132;13.588;2023-02-01T09:35:08;6.4;6.0;
56360;PMS7003;42611;51.132;13.588;2023-02-01T09:40:01;5.9;5.6;
56360;PMS7003;42611;51.132;13.588;2023-02-01T09:45:18;5.7;5.4;
56360;PMS7003;42611;51.132;13.588;2023-02-01T09:50:13;5.2;5.2;
56360;PMS7003;42611;51.132;13.588;2023-02-01T09:55:10;5.4;5.4;
56360;PMS7003;42611;51.132;13.588;2023-02-01T10:00:17;5.4;5.2;
56360;PMS7003;42611;51.132;13.588;2023-02-01T10:05:02;5.8;5.6;
56360;PMS7003;42611;51.132;13.588;2023-02-01T10:15:35;5.5;5.3;
56360;PMS7003;42611;51.132;13.588;2023-02-01T10:20:08;7.0;6.2;
56360;PMS7003;42611;51.132;13.588;2023-02-01T10:25:06;7.4;6.6;
56360;PMS7003;42611;51.132;13.588;2023-02-01T10:30:25;7.9;7.0;
56360;PMS7003;42611;51.132;13.588;2023-02-01T10:35:02;9.2;7.8;
56360;PMS7003;42611;51.132;13.588;2023-02-01T10:40:21;10.7;9.4;
56360;PMS7003;42611;51.132;13.588;2023-02-01T10:45:11;9.9;8.9;
56360;PMS7003;42611;51.132;13.588;2023-02-01T10:50:29;11.1;9.2;
56360;PMS7003;42611;51.132;13.588;2023-02-01T10:55:38;11.9;9.9;
56360;PMS7003;42611;51.132;13.588;2023-02-01T11:00:18;11.2;9.4;
56360;PMS7003;42611;51.132;13.588;2023-02-01T11:05:02;10.2;8.4;
56360;PMS7003;42611;51.132;13.588;2023-02-01T11:10:01;9.8;8.2;
56360;PMS7003;42611;51.132;13.588;2023-02-01T11:15:31;8.4;7.9;
56360;PMS7003;42611;51.132;13.588;2023-02-01T11:20:03;7.4;7.0;
56360;PMS7003;42611;51.132;13.588;2023-02-01T11:25:01;6.8;6.8;
56360;PMS7003;42611;51.132;13.588;2023-02-01T11:30:03;6.9;6.8;
56360;PMS7003;42611;51.132;13.588;2023-02-01T11:35:06;7.4;6.8;
56360;PMS7003;42611;51.132;13.588;2023-02-01T11:40:03;7.8;7.2;
56360;PMS7003;42611;51.132;13.588;2023-02-01T11:45:30;7.8;7.2;
56360;PMS7003;42611;51.132;13.588;2023-02-01T11:55:12;8.2;7.5;
56360;PMS7003;42611;51.132;13.588;2023-02-01T12:05:08;8.0;6.8;
56360;PMS7003;42611;51.132;13.588;2023-02-01T12:26:09;7.0;6.0;
56360;PMS7003;42611;51.132;13.588;2023-02-01T12:30:21;7.4;6.4;
56360;PMS7003;42611;51.132;13.588;2023-02-01T12:36:08;7.5;6.3;
56360;PMS7003;42611;51.132;13.588;2023-02-01T12:45:26;7.0;6.0;
56360;PMS7003;42611;51.132;13.588;2023-02-01T12:50:41;6.9;6.2;
56360;PMS7003;42611;51.132;13.588;2023-02-01T12:55:05;6.5;5.8;
56360;PMS7003;42611;51.132;13.588;2023-02-01T13:00:59;6.7;6.1;
56360;PMS7003;42611;51.132;13.588;2023-02-01T13:05:31;6.3;5.8;
56360;PMS7003;42611;51.132;13.588;2023-02-01T13:10:03;7.0;6.2;
56360;PMS7003;42611;51.132;13.588;2023-02-01T13:15:31;7.1;6.2;
56360;PMS7003;42611;51.132;13.588;2023-02-01T13:20:06;8.2;7.0;
56360;PMS7003;42611;51.132;13.588;2023-02-01T13:25:11;8.0;6.6;
56360;PMS7003;42611;51.132;13.588;2023-02-01T13:30:38;8.7;6.8;
56360;PMS7003;42611;51.132;13.588;2023-02-01T13:35:18;8.5;7.0;
56360;PMS7003;42611;51.132;13.588;2023-02-01T13:40:10;8.2;6.9;
56360;PMS7003;42611;51.132;13.588;2023-02-01T13:45:26;7.3;6.2;
56360;PMS7003;42611;51.132;13.588;2023-02-01T13:50:04;7.9;6.4;
56360;PMS7003;42611;51.132;13.588;2023-02-01T13:55:29;7.6;6.4;
56360;PMS7003;42611;51.132;13.588;2023-02-01T14:00:43;6.8;5.4;
56360;PMS7003;42611;51.132;13.588;2023-02-01T14:05:01;6.6;5.0;
56360;PMS7003;42611;51.132;13.588;2023-02-01T14:11:08;6.9;5.4;
56360;PMS7003;42611;51.132;13.588;2023-02-01T14:15:36;6.5;5.4;
56360;PMS7003;42611;51.132;13.588;2023-02-01T14:25:14;6.8;6.0;
56360;PMS7003;42611;51.132;13.588;2023-02-01T14:30:07;6.6;6.0;
56360;PMS7003;42611;51.132;13.588;2023-02-01T14:35:01;5.9;5.4;
56360;PMS7003;42611;51.132;13.588;2023-02-01T14:50:17;6.2;6.2;
56360;PMS7003;42611;51.132;13.588;2023-02-01T15:00:19;7.5;6.8;
56360;PMS7003;42611;51.132;13.588;2023-02-01T15:05:20;7.0;6.3;
56360;PMS7003;42611;51.132;13.588;2023-02-01T15:10:01;7.3;6.6;
56360;PMS7003;42611;51.132;13.588;2023-02-01T15:15:18;7.9;7.0;
56360;PMS7003;42611;51.132;13.588;2023-02-01T15:20:20;8.7;7.1;
56360;PMS7003;42611;51.132;13.588;2023-02-01T15:25:18;7.8;6.9;
56360;PMS7003;42611;51.132;13.588;2023-02-01T15:30:23;8.2;6.9;
56360;PMS7003;42611;51.132;13.588;2023-02-01T15:40:03;7.8;6.6;
56360;PMS7003;42611;51.132;13.588;2023-02-01T15:45:02;7.4;6.9;
56360;PMS7003;42611;51.132;13.588;2023-02-01T15:50:12;7.9;7.2;
56360;PMS7003;42611;51.132;13.588;2023-02-01T15:55:02;7.8;7.3;
56360;PMS7003;42611;51.132;13.588;2023-02-01T16:00:08;7.1;6.6;
56360;PMS7003;42611;51.132;13.588;2023-02-01T16:05:01;6.9;6.4;
56360;PMS7003;42611;51.132;13.588;2023-02-01T16:10:01;6.5;6.1;
56360;PMS7003;42611;51.132;13.588;2023-02-01T16:15:07;6.1;5.8;
56360;PMS7003;42611;51.132;13.588;2023-02-01T16:20:06;6.6;5.8;
56360;PMS7003;42611;51.132;13.588;2023-02-01T16:25:01;6.8;5.9;
56360;PMS7003;42611;51.132;13.588;2023-02-01T16:30:07;7.6;6.2;
56360;PMS7003;42611;51.132;13.588;2023-02-01T16:35:01;8.4;6.8;
56360;PMS7003;42611;51.132;13.588;2023-02-01T16:40:01;8.7;6.8;
56360;PMS7003;42611;51.132;13.588;2023-02-01T16:45:07;8.1;6.9;
56360;PMS7003;42611;51.132;13.588;2023-02-01T16:50:27;9.4;8.2;
56360;PMS7003;42611;51.132;13.588;2023-02-01T16:55:08;10.2;8.8;
56360;PMS7003;42611;51.132;13.588;2023-02-01T17:00:27;9.0;7.6;
56360;PMS7003;42611;51.132;13.588;2023-02-01T17:05:02;7.7;6.6;
56360;PMS7003;42611;51.132;13.588;2023-02-01T17:10:02;6.5;5.3;
56360;PMS7003;42611;51.132;13.588;2023-02-01T17:15:01;4.2;3.3;
56360;PMS7003;42611;51.132;13.588;2023-02-01T17:20:02;1.6;1.4;
56360;PMS7003;42611;51.132;13.588;2023-02-01T17:25:01;1.1;0.9;
56360;PMS7003;42611;51.132;13.588;2023-02-01T17:30:03;0.7;0.5;
56360;PMS7003;42611;51.132;13.588;2023-02-01T17:35:01;0.4;0.3;
56360;PMS7003;42611;51.132;13.588;2023-02-01T17:45:21;0.6;0.2;
56360;PMS7003;42611;51.132;13.588;2023-02-01T17:50:01;0.4;0.0;
56360;PMS7003;42611;51.132;13.588;2023-02-01T17:55:05;0.5;0.1;
56360;PMS7003;42611;51.132;13.588;2023-02-01T18:00:02;0.9;0.1;
56360;PMS7003;42611;51.132;13.588;2023-02-01T18:05:04;1.2;0.4;
56360;PMS7003;42611;51.132;13.588;2023-02-01T18:10:01;0.8;0.4;
56360;PMS7003;42611;51.132;13.588;2023-02-01T18:15:15;1.0;0.5;
56360;PMS7003;42611;51.132;13.588;2023-02-01T18:20:01;1.1;0.6;
56360;PMS7003;42611;51.132;13.588;2023-02-01T18:25:01;1.3;1.0;
56360;PMS7003;42611;51.132;13.588;2023-02-01T18:30:02;1.2;0.8;
56360;PMS7003;42611;51.132;13.588;2023-02-01T18:35:04;1.6;1.2;
56360;PMS7003;42611;51.132;13.588;2023-02-01T18:40:01;1.7;1.3;
56360;PMS7003;42611;51.132;13.588;2023-02-01T18:45:02;1.9;1.5;
56360;PMS7003;42611;51.132;13.588;2023-02-01T18:50:01;1.7;1.6;
56360;PMS7003;42611;51.132;13.588;2023-02-01T18:55:01;1.9;1.4;
56360;PMS7003;42611;51.132;13.588;2023-02-01T19:00:04;1.7;1.2;
56360;PMS7003;42611;51.132;13.588;2023-02-01T19:05:01;1.6;1.2;
56360;PMS7003;42611;51.132;13.588;2023-02-01T19:10:02;1.9;1.4;
56360;PMS7003;42611;51.132;13.588;2023-02-01T19:15:02;1.5;1.0;
56360;PMS7003;42611;51.132;13.588;2023-02-01T19:25:01;2.1;0.9;
56360;PMS7003;42611;51.132;13.588;2023-02-01T19:30:03;1.9;0.7;
56360;PMS7003;42611;51.132;13.588;2023-02-01T19:35:01;1.4;0.1;
56360;PMS7003;42611;51.132;13.588;2023-02-01T19:40:03;1.7;0.3;
56360;PMS7003;42611;51.132;13.588;2023-02-01T19:45:05;1.3;0.2;
56360;PMS7003;42611;51.132;13.588;2023-02-01T19:50:01;0.5;0.2;
56360;PMS7003;42611;51.132;13.588;2023-02-01T19:55:02;0.9;0.2;
56360;PMS7003;42611;51.132;13.588;2023-02-01T20:00:05;0.9;0.3;
56360;PMS7003;42611;51.132;13.588;2023-02-01T20:05:01;0.8;0.4;
56360;PMS7003;42611;51.132;13.588;2023-02-01T20:10:01;1.2;0.8;
56360;PMS7003;42611;51.132;13.588;2023-02-01T20:15:03;1.4;1.0;
56360;PMS7003;42611;51.132;13.588;2023-02-01T20:20:02;1.0;1.0;
56360;PMS7003;42611;51.132;13.588;2023-02-01T20:25:01;0.9;0.9;
56360;PMS7003;42611;51.132;13.588;2023-02-01T20:30:02;1.0;0.9;
56360;PMS7003;42611;51.132;13.588;2023-02-01T20:35:01;0.8;0.7;
56360;PMS7003;42611;51.132;13.588;2023-02-01T20:45:03;1.3;1.1;
56360;PMS7003;42611;51.132;13.588;2023-02-01T20:50:01;2.0;1.2;
56360;PMS7003;42611;51.132;13.588;2023-02-01T20:55:01;1.9;1.2;
56360;PMS7003;42611;51.132;13.588;2023-02-01T21:00:03;2.1;1.0;
56360;PMS7003;42611;51.132;13.588;2023-02-01T21:10:01;1.7;0.8;
56360;PMS7003;42611;51.132;13.588;2023-02-01T21:15:03;1.2;0.8;
56360;PMS7003;42611;51.132;13.588;2023-02-01T21:20:01;1.0;0.6;
56360;PMS7003;42611;51.132;13.588;2023-02-01T21:25:02;0.8;0.8;
56360;PMS7003;42611;51.132;13.588;2023-02-01T21:30:03;0.8;0.8;
56360;PMS7003;42611;51.132;13.588;2023-02-01T21:40:02;1.0;1.0;
56360;PMS7003;42611;51.132;13.588;2023-02-01T21:45:01;1.6;1.4;
56360;PMS7003;42611;51.132;13.588;2023-02-01T21:50:04;1.5;1.3;
56360;PMS7003;42611;51.132;13.588;2023-02-01T22:00:03;1.5;1.3;
56360;PMS7003;42611;51.132;13.588;2023-02-01T22:05:02;1.3;1.1;
56360;PMS7003;42611;51.132;13.588;2023-02-01T22:10:02;1.0;1.0;
56360;PMS7003;42611;51.132;13.588;2023-02-01T22:15:01;1.2;1.2;
56360;PMS7003;42611;51.132;13.588;2023-02-01T22:20:02;1.8;1.5;
56360;PMS7003;42611;51.132;13.588;2023-02-01T22:25:01;2.0;1.7;
56360;PMS7003;42611;51.132;13.588;2023-02-01T22:30:02;2.2;1.9;
56360;PMS7003;42611;51.132;13.588;2023-02-01T22:35:01;2.5;2.2;
56360;PMS7003;42611;51.132;13.588;2023-02-01T22:40:01;3.1;2.4;
56360;PMS7003;42611;51.132;13.588;2023-02-01T22:45:01;3.3;2.9;
56360;PMS7003;42611;51.132;13.588;2023-02-01T22:50:01;3.5;3.0;
56360;PMS7003;42611;51.132;13.588;2023-02-01T22:55:01;3.6;3.1;
56360;PMS7003;42611;51.132;13.588;2023-02-01T23:00:03;3.4;2.9;
56360;PMS7003;42611;51.132;13.588;2023-02-01T23:05:01;3.6;3.0;
56360;PMS7003;42611;51.132;13.588;2023-02-01T23:10:01;3.4;2.7;
56360;PMS7003;42611;51.132;13.588;2023-02-01T23:15:02;3.6;2.9;
56360;PMS7003;42611;51.132;13.588;2023-02-01T23:20:03;3.4;2.8;
56360;PMS7003;42611;51.132;13.588;2023-02-01T23:25:01;3.5;2.8;
56360;PMS7003;42611;51.132;13.588;2023-02-01T23:30:02;3.2;2.6;
56360;PMS7003;42611;51.132;13.588;2023-02-01T23:35:02;2.8;2.2;
56360;PMS7003;42611;51.132;13.588;2023-02-01T23:40:01;2.3;1.7;
56360;PMS7003;42611;51.132;13.588;2023-02-01T23:45:03;2.1;1.5;
56360;PMS7003;42611;51.132;13.588;2023-02-01T23:50:01;2.0;1.5;
56360;PMS7003;42611;51.132;13.588;2023-02-01T23:55:01;1.9;1.7;
